sensor_id;sensor_type;location;lat;lon;timestamp;P1;durP1;ratioP1;P2;durP2;ratioP2
46322;SDS011;32044;52.386;13.278;2022-09-11T00:01:27;10.20;;;7.95;;
46322;SDS011;32044;52.386;13.278;2022-09-11T00:03:53;11.13;;;8.50;;
46322;SDS011;32044;52.386;13.278;2022-09-11T00:06:21;8.15;;;7.05;;
46322;SDS011;32044;52.386;13.278;2022-09-11T00:08:50;8.50;;;7.22;;
46322;SDS011;32044;52.386;13.278;2022-09-11T00:11:17;12.45;;;7.82;;
46322;SDS011;32044;52.386;13.278;2022-09-11T00:13:44;10.88;;;8.40;;
46322;SDS011;32044;52.386;13.278;2022-09-11T00:16:27;9.65;;;8.10;;
46322;SDS011;32044;52.386;13.278;2022-09-11T00:19:01;11.38;;;9.25;;
46322;SDS011;32044;52.386;13.278;2022-09-11T00:21:29;11.35;;;9.77;;
46322;SDS011;32044;52.386;13.278;2022-09-11T00:23:54;13.35;;;9.52;;
46322;SDS011;32044;52.386;13.278;2022-09-11T00:26:20;11.70;;;8.98;;
46322;SDS011;32044;52.386;13.278;2022-09-11T00:28:46;10.07;;;9.00;;
46322;SDS011;32044;52.386;13.278;2022-09-11T00:31:15;9.45;;;7.65;;
46322;SDS011;32044;52.386;13.278;2022-09-11T00:33:42;12.98;;;7.50;;
46322;SDS011;32044;52.386;13.278;2022-09-11T00:36:12;7.82;;;7.13;;
46322;SDS011;32044;52.386;13.278;2022-09-11T00:38:42;8.98;;;7.40;;
46322;SDS011;32044;52.386;13.278;2022-09-11T00:41:11;10.25;;;7.13;;
46322;SDS011;32044;52.386;13.278;2022-09-11T00:43:49;9.55;;;7.95;;
46322;SDS011;32044;52.386;13.278;2022-09-11T00:46:21;9.07;;;7.50;;
46322;SDS011;32044;52.386;13.278;2022-09-11T00:48:47;9.07;;;7.38;;
46322;SDS011;32044;52.386;13.278;2022-09-11T00:51:14;10.75;;;7.50;;
46322;SDS011;32044;52.386;13.278;2022-09-11T00:53:42;9.02;;;7.30;;
46322;SDS011;32044;52.386;13.278;2022-09-11T00:56:07;12.68;;;8.50;;
46322;SDS011;32044;52.386;13.278;2022-09-11T00:58:35;8.77;;;7.43;;
46322;SDS011;32044;52.386;13.278;2022-09-11T01:01:02;7.53;;;6.70;;
46322;SDS011;32044;52.386;13.278;2022-09-11T01:03:28;8.45;;;7.47;;
46322;SDS011;32044;52.386;13.278;2022-09-11T01:05:56;11.50;;;8.43;;
46322;SDS011;32044;52.386;13.278;2022-09-11T01:08:21;15.52;;;8.85;;
46322;SDS011;32044;52.386;13.278;2022-09-11T01:13:37;8.73;;;7.25;;
46322;SDS011;32044;52.386;13.278;2022-09-11T01:16:23;9.73;;;8.05;;
46322;SDS011;32044;52.386;13.278;2022-09-11T01:27:34;8.73;;;6.20;;
46322;SDS011;32044;52.386;13.278;2022-09-11T01:30:04;8.57;;;7.47;;
46322;SDS011;32044;52.386;13.278;2022-09-11T01:32:39;8.50;;;7.07;;
46322;SDS011;32044;52.386;13.278;2022-09-11T01:35:12;8.65;;;6.30;;
46322;SDS011;32044;52.386;13.278;2022-09-11T01:37:43;7.40;;;5.90;;
46322;SDS011;32044;52.386;13.278;2022-09-11T01:40:21;7.07;;;6.35;;
46322;SDS011;32044;52.386;13.278;2022-09-11T01:42:49;7.82;;;7.00;;
46322;SDS011;32044;52.386;13.278;2022-09-11T01:45:16;11.63;;;7.22;;
46322;SDS011;32044;52.386;13.278;2022-09-11T01:47:42;9.15;;;7.03;;
46322;SDS011;32044;52.386;13.278;2022-09-11T01:50:09;7.85;;;6.40;;
46322;SDS011;32044;52.386;13.278;2022-09-11T01:52:44;9.85;;;7.30;;
46322;SDS011;32044;52.386;13.278;2022-09-11T01:55:15;8.25;;;7.45;;
46322;SDS011;32044;52.386;13.278;2022-09-11T02:00:22;7.28;;;6.57;;
46322;SDS011;32044;52.386;13.278;2022-09-11T02:02:49;7.43;;;6.63;;
46322;SDS011;32044;52.386;13.278;2022-09-11T02:05:17;7.72;;;6.93;;
46322;SDS011;32044;52.386;13.278;2022-09-11T02:07:49;10.07;;;7.75;;
46322;SDS011;32044;52.386;13.278;2022-09-11T02:10:19;10.70;;;8.27;;
46322;SDS011;32044;52.386;13.278;2022-09-11T02:12:56;10.45;;;8.50;;
46322;SDS011;32044;52.386;13.278;2022-09-11T02:15:29;9.38;;;7.88;;
46322;SDS011;32044;52.386;13.278;2022-09-11T02:18:01;10.27;;;8.67;;
46322;SDS011;32044;52.386;13.278;2022-09-11T02:20:27;9.65;;;7.90;;
46322;SDS011;32044;52.386;13.278;2022-09-11T02:22:53;11.13;;;8.43;;
46322;SDS011;32044;52.386;13.278;2022-09-11T02:25:18;11.18;;;9.23;;
46322;SDS011;32044;52.386;13.278;2022-09-11T02:27:44;12.90;;;9.68;;
46322;SDS011;32044;52.386;13.278;2022-09-11T02:30:09;11.73;;;8.90;;
46322;SDS011;32044;52.386;13.278;2022-09-11T02:32:35;9.85;;;8.82;;
46322;SDS011;32044;52.386;13.278;2022-09-11T02:35:02;12.45;;;10.18;;
46322;SDS011;32044;52.386;13.278;2022-09-11T02:37:41;15.88;;;11.85;;
46322;SDS011;32044;52.386;13.278;2022-09-11T02:49:06;15.63;;;11.23;;
46322;SDS011;32044;52.386;13.278;2022-09-11T02:51:46;12.48;;;11.15;;
46322;SDS011;32044;52.386;13.278;2022-09-11T03:00:04;13.13;;;10.60;;
46322;SDS011;32044;52.386;13.278;2022-09-11T03:02:32;12.90;;;10.18;;
46322;SDS011;32044;52.386;13.278;2022-09-11T03:05:01;16.10;;;10.43;;
46322;SDS011;32044;52.386;13.278;2022-09-11T03:07:27;13.18;;;10.65;;
46322;SDS011;32044;52.386;13.278;2022-09-11T03:09:52;11.95;;;10.13;;
46322;SDS011;32044;52.386;13.278;2022-09-11T03:12:18;12.95;;;9.65;;
46322;SDS011;32044;52.386;13.278;2022-09-11T03:14:44;13.30;;;9.88;;
46322;SDS011;32044;52.386;13.278;2022-09-11T03:17:09;11.60;;;10.20;;
46322;SDS011;32044;52.386;13.278;2022-09-11T03:19:34;12.13;;;10.52;;
46322;SDS011;32044;52.386;13.278;2022-09-11T03:22:00;15.45;;;10.65;;
46322;SDS011;32044;52.386;13.278;2022-09-11T03:24:27;16.05;;;10.38;;
46322;SDS011;32044;52.386;13.278;2022-09-11T03:26:52;13.48;;;9.40;;
46322;SDS011;32044;52.386;13.278;2022-09-11T03:29:17;12.10;;;9.40;;
46322;SDS011;32044;52.386;13.278;2022-09-11T03:31:42;11.27;;;9.68;;
46322;SDS011;32044;52.386;13.278;2022-09-11T03:34:08;13.55;;;10.40;;
46322;SDS011;32044;52.386;13.278;2022-09-11T03:36:34;12.13;;;9.30;;
46322;SDS011;32044;52.386;13.278;2022-09-11T03:39:00;17.70;;;11.25;;
46322;SDS011;32044;52.386;13.278;2022-09-11T03:41:25;15.50;;;10.75;;
46322;SDS011;32044;52.386;13.278;2022-09-11T03:43:51;15.48;;;10.35;;
46322;SDS011;32044;52.386;13.278;2022-09-11T03:46:16;16.48;;;11.52;;
46322;SDS011;32044;52.386;13.278;2022-09-11T03:48:41;21.38;;;14.98;;
46322;SDS011;32044;52.386;13.278;2022-09-11T03:51:07;21.98;;;14.93;;
46322;SDS011;32044;52.386;13.278;2022-09-11T03:53:32;24.23;;;15.40;;
46322;SDS011;32044;52.386;13.278;2022-09-11T03:56:00;28.17;;;14.32;;
46322;SDS011;32044;52.386;13.278;2022-09-11T03:58:27;23.90;;;15.93;;
46322;SDS011;32044;52.386;13.278;2022-09-11T04:00:53;23.92;;;17.23;;
46322;SDS011;32044;52.386;13.278;2022-09-11T04:03:18;23.65;;;16.88;;
46322;SDS011;32044;52.386;13.278;2022-09-11T04:05:55;28.48;;;18.67;;
46322;SDS011;32044;52.386;13.278;2022-09-11T04:08:22;27.20;;;19.85;;
46322;SDS011;32044;52.386;13.278;2022-09-11T04:10:47;27.08;;;19.00;;
46322;SDS011;32044;52.386;13.278;2022-09-11T04:13:13;28.23;;;20.02;;
46322;SDS011;32044;52.386;13.278;2022-09-11T04:15:38;32.33;;;20.60;;
46322;SDS011;32044;52.386;13.278;2022-09-11T04:18:06;31.05;;;22.83;;
46322;SDS011;32044;52.386;13.278;2022-09-11T04:20:32;32.80;;;23.35;;
46322;SDS011;32044;52.386;13.278;2022-09-11T04:22:57;39.72;;;23.42;;
46322;SDS011;32044;52.386;13.278;2022-09-11T04:25:23;35.50;;;22.27;;
46322;SDS011;32044;52.386;13.278;2022-09-11T04:27:48;37.60;;;25.65;;
46322;SDS011;32044;52.386;13.278;2022-09-11T04:30:13;41.38;;;26.05;;
46322;SDS011;32044;52.386;13.278;2022-09-11T04:32:39;42.90;;;27.63;;
46322;SDS011;32044;52.386;13.278;2022-09-11T04:35:04;40.72;;;25.75;;
46322;SDS011;32044;52.386;13.278;2022-09-11T04:37:29;37.20;;;24.42;;
46322;SDS011;32044;52.386;13.278;2022-09-11T04:39:55;43.70;;;23.83;;
46322;SDS011;32044;52.386;13.278;2022-09-11T04:42:20;34.00;;;21.42;;
46322;SDS011;32044;52.386;13.278;2022-09-11T04:44:45;37.70;;;20.42;;
46322;SDS011;32044;52.386;13.278;2022-09-11T04:47:11;38.13;;;20.88;;
46322;SDS011;32044;52.386;13.278;2022-09-11T04:49:36;37.30;;;20.95;;
46322;SDS011;32044;52.386;13.278;2022-09-11T04:52:01;47.08;;;22.50;;
46322;SDS011;32044;52.386;13.278;2022-09-11T04:54:30;43.38;;;21.92;;
46322;SDS011;32044;52.386;13.278;2022-09-11T04:56:57;47.88;;;23.08;;
46322;SDS011;32044;52.386;13.278;2022-09-11T04:59:23;47.78;;;22.15;;
46322;SDS011;32044;52.386;13.278;2022-09-11T05:01:48;54.30;;;25.88;;
46322;SDS011;32044;52.386;13.278;2022-09-11T05:04:14;58.78;;;26.98;;
46322;SDS011;32044;52.386;13.278;2022-09-11T05:06:40;45.78;;;25.13;;
46322;SDS011;32044;52.386;13.278;2022-09-11T05:09:07;51.22;;;26.23;;
46322;SDS011;32044;52.386;13.278;2022-09-11T05:11:34;52.55;;;25.70;;
46322;SDS011;32044;52.386;13.278;2022-09-11T05:14:00;46.78;;;25.38;;
46322;SDS011;32044;52.386;13.278;2022-09-11T05:16:26;55.05;;;27.23;;
46322;SDS011;32044;52.386;13.278;2022-09-11T05:18:52;50.05;;;24.88;;
46322;SDS011;32044;52.386;13.278;2022-09-11T05:21:19;48.75;;;24.70;;
46322;SDS011;32044;52.386;13.278;2022-09-11T05:23:47;46.70;;;24.58;;
46322;SDS011;32044;52.386;13.278;2022-09-11T05:26:14;51.40;;;26.23;;
46322;SDS011;32044;52.386;13.278;2022-09-11T05:28:41;52.30;;;26.67;;
46322;SDS011;32044;52.386;13.278;2022-09-11T05:31:10;49.65;;;25.00;;
46322;SDS011;32044;52.386;13.278;2022-09-11T05:33:36;43.10;;;24.13;;
46322;SDS011;32044;52.386;13.278;2022-09-11T05:36:03;41.20;;;22.95;;
46322;SDS011;32044;52.386;13.278;2022-09-11T05:38:29;45.28;;;23.33;;
46322;SDS011;32044;52.386;13.278;2022-09-11T05:40:54;52.90;;;25.95;;
46322;SDS011;32044;52.386;13.278;2022-09-11T05:43:19;38.83;;;19.25;;
46322;SDS011;32044;52.386;13.278;2022-09-11T05:45:52;42.13;;;22.63;;
46322;SDS011;32044;52.386;13.278;2022-09-11T05:48:18;41.83;;;22.80;;
46322;SDS011;32044;52.386;13.278;2022-09-11T05:50:50;43.60;;;21.88;;
46322;SDS011;32044;52.386;13.278;2022-09-11T05:53:16;46.25;;;23.80;;
46322;SDS011;32044;52.386;13.278;2022-09-11T05:55:42;45.63;;;23.17;;
46322;SDS011;32044;52.386;13.278;2022-09-11T05:58:07;42.00;;;21.98;;
46322;SDS011;32044;52.386;13.278;2022-09-11T06:00:32;41.55;;;22.90;;
46322;SDS011;32044;52.386;13.278;2022-09-11T06:02:57;43.35;;;23.83;;
46322;SDS011;32044;52.386;13.278;2022-09-11T06:05:23;42.42;;;23.05;;
46322;SDS011;32044;52.386;13.278;2022-09-11T06:07:48;39.92;;;23.00;;
46322;SDS011;32044;52.386;13.278;2022-09-11T06:10:15;38.67;;;23.05;;
46322;SDS011;32044;52.386;13.278;2022-09-11T06:12:41;41.10;;;22.25;;
46322;SDS011;32044;52.386;13.278;2022-09-11T06:15:06;41.15;;;21.80;;
46322;SDS011;32044;52.386;13.278;2022-09-11T06:17:32;33.72;;;20.05;;
46322;SDS011;32044;52.386;13.278;2022-09-11T06:19:57;36.97;;;20.48;;
46322;SDS011;32044;52.386;13.278;2022-09-11T06:22:23;36.35;;;21.38;;
46322;SDS011;32044;52.386;13.278;2022-09-11T06:24:48;41.60;;;22.25;;
46322;SDS011;32044;52.386;13.278;2022-09-11T06:27:13;37.33;;;21.38;;
46322;SDS011;32044;52.386;13.278;2022-09-11T06:29:39;38.00;;;21.40;;
46322;SDS011;32044;52.386;13.278;2022-09-11T06:32:04;43.00;;;23.95;;
46322;SDS011;32044;52.386;13.278;2022-09-11T06:34:30;42.15;;;23.60;;
46322;SDS011;32044;52.386;13.278;2022-09-11T06:36:56;44.88;;;25.92;;
46322;SDS011;32044;52.386;13.278;2022-09-11T06:39:21;39.08;;;22.45;;
46322;SDS011;32044;52.386;13.278;2022-09-11T06:41:50;39.13;;;21.88;;
46322;SDS011;32044;52.386;13.278;2022-09-11T06:44:17;41.42;;;24.20;;
46322;SDS011;32044;52.386;13.278;2022-09-11T06:46:42;43.28;;;24.30;;
46322;SDS011;32044;52.386;13.278;2022-09-11T06:49:08;41.85;;;24.08;;
46322;SDS011;32044;52.386;13.278;2022-09-11T06:51:33;40.50;;;23.58;;
46322;SDS011;32044;52.386;13.278;2022-09-11T06:53:59;42.85;;;23.02;;
46322;SDS011;32044;52.386;13.278;2022-09-11T06:56:26;44.65;;;23.92;;
46322;SDS011;32044;52.386;13.278;2022-09-11T06:58:52;39.30;;;22.70;;
46322;SDS011;32044;52.386;13.278;2022-09-11T07:01:18;44.45;;;23.65;;
46322;SDS011;32044;52.386;13.278;2022-09-11T07:03:44;35.88;;;22.88;;
46322;SDS011;32044;52.386;13.278;2022-09-11T07:06:11;39.35;;;23.52;;
46322;SDS011;32044;52.386;13.278;2022-09-11T07:08:39;37.78;;;23.35;;
46322;SDS011;32044;52.386;13.278;2022-09-11T07:11:05;34.83;;;21.58;;
46322;SDS011;32044;52.386;13.278;2022-09-11T07:13:32;37.70;;;22.33;;
46322;SDS011;32044;52.386;13.278;2022-09-11T07:16:02;31.15;;;20.30;;
46322;SDS011;32044;52.386;13.278;2022-09-11T07:18:32;29.20;;;19.65;;
46322;SDS011;32044;52.386;13.278;2022-09-11T07:21:04;35.35;;;21.83;;
46322;SDS011;32044;52.386;13.278;2022-09-11T07:23:35;29.92;;;19.90;;
46322;SDS011;32044;52.386;13.278;2022-09-11T07:26:01;27.90;;;19.67;;
46322;SDS011;32044;52.386;13.278;2022-09-11T07:28:30;29.95;;;20.17;;
46322;SDS011;32044;52.386;13.278;2022-09-11T07:31:02;26.60;;;17.63;;
46322;SDS011;32044;52.386;13.278;2022-09-11T07:33:31;30.05;;;19.15;;
46322;SDS011;32044;52.386;13.278;2022-09-11T07:35:56;26.65;;;18.02;;
46322;SDS011;32044;52.386;13.278;2022-09-11T07:38:22;27.27;;;18.02;;
46322;SDS011;32044;52.386;13.278;2022-09-11T07:40:47;24.73;;;16.65;;
46322;SDS011;32044;52.386;13.278;2022-09-11T07:43:13;22.48;;;16.98;;
46322;SDS011;32044;52.386;13.278;2022-09-11T07:45:39;25.65;;;17.73;;
46322;SDS011;32044;52.386;13.278;2022-09-11T07:48:04;22.83;;;17.05;;
46322;SDS011;32044;52.386;13.278;2022-09-11T07:50:30;26.48;;;17.08;;
46322;SDS011;32044;52.386;13.278;2022-09-11T07:52:56;21.50;;;16.58;;
46322;SDS011;32044;52.386;13.278;2022-09-11T07:55:21;24.65;;;15.32;;
46322;SDS011;32044;52.386;13.278;2022-09-11T07:57:46;21.20;;;16.10;;
46322;SDS011;32044;52.386;13.278;2022-09-11T08:00:14;24.13;;;16.42;;
46322;SDS011;32044;52.386;13.278;2022-09-11T08:02:40;28.63;;;17.60;;
46322;SDS011;32044;52.386;13.278;2022-09-11T08:05:06;27.60;;;18.75;;
46322;SDS011;32044;52.386;13.278;2022-09-11T08:07:32;22.65;;;15.38;;
46322;SDS011;32044;52.386;13.278;2022-09-11T08:09:57;28.60;;;17.63;;
46322;SDS011;32044;52.386;13.278;2022-09-11T08:12:22;24.17;;;17.60;;
46322;SDS011;32044;52.386;13.278;2022-09-11T08:14:47;25.58;;;15.93;;
46322;SDS011;32044;52.386;13.278;2022-09-11T08:17:13;20.65;;;13.90;;
46322;SDS011;32044;52.386;13.278;2022-09-11T08:19:38;21.75;;;14.20;;
46322;SDS011;32044;52.386;13.278;2022-09-11T08:22:04;21.05;;;13.73;;
46322;SDS011;32044;52.386;13.278;2022-09-11T08:24:29;21.88;;;15.15;;
46322;SDS011;32044;52.386;13.278;2022-09-11T08:26:55;18.92;;;11.82;;
46322;SDS011;32044;52.386;13.278;2022-09-11T08:29:21;17.02;;;12.20;;
46322;SDS011;32044;52.386;13.278;2022-09-11T08:31:46;18.55;;;12.65;;
46322;SDS011;32044;52.386;13.278;2022-09-11T08:34:11;16.15;;;11.23;;
46322;SDS011;32044;52.386;13.278;2022-09-11T08:36:37;16.92;;;11.65;;
46322;SDS011;32044;52.386;13.278;2022-09-11T08:39:02;16.60;;;12.18;;
46322;SDS011;32044;52.386;13.278;2022-09-11T08:41:29;18.25;;;11.40;;
46322;SDS011;32044;52.386;13.278;2022-09-11T08:44:10;19.90;;;12.77;;
46322;SDS011;32044;52.386;13.278;2022-09-11T08:46:39;19.27;;;12.52;;
46322;SDS011;32044;52.386;13.278;2022-09-11T08:51:34;21.42;;;13.32;;
46322;SDS011;32044;52.386;13.278;2022-09-11T08:54:00;18.23;;;12.90;;
46322;SDS011;32044;52.386;13.278;2022-09-11T08:56:27;18.08;;;12.88;;
46322;SDS011;32044;52.386;13.278;2022-09-11T09:01:56;18.70;;;12.57;;
46322;SDS011;32044;52.386;13.278;2022-09-11T09:04:37;15.85;;;12.30;;
46322;SDS011;32044;52.386;13.278;2022-09-11T09:07:27;18.02;;;12.43;;
46322;SDS011;32044;52.386;13.278;2022-09-11T09:13:27;18.23;;;12.13;;
46322;SDS011;32044;52.386;13.278;2022-09-11T09:19:00;17.80;;;12.10;;
46322;SDS011;32044;52.386;13.278;2022-09-11T09:21:39;18.20;;;11.20;;
46322;SDS011;32044;52.386;13.278;2022-09-11T09:24:10;14.15;;;9.73;;
46322;SDS011;32044;52.386;13.278;2022-09-11T09:26:43;16.38;;;10.40;;
46322;SDS011;32044;52.386;13.278;2022-09-11T09:29:16;17.17;;;12.07;;
46322;SDS011;32044;52.386;13.278;2022-09-11T09:31:44;15.93;;;11.52;;
46322;SDS011;32044;52.386;13.278;2022-09-11T09:34:15;15.70;;;11.05;;
46322;SDS011;32044;52.386;13.278;2022-09-11T09:39:36;17.13;;;10.52;;
46322;SDS011;32044;52.386;13.278;2022-09-11T09:47:27;14.02;;;11.02;;
46322;SDS011;32044;52.386;13.278;2022-09-11T09:49:54;17.02;;;11.38;;
46322;SDS011;32044;52.386;13.278;2022-09-11T09:52:21;13.88;;;10.40;;
46322;SDS011;32044;52.386;13.278;2022-09-11T09:54:55;13.82;;;10.68;;
46322;SDS011;32044;52.386;13.278;2022-09-11T09:57:25;11.85;;;8.95;;
46322;SDS011;32044;52.386;13.278;2022-09-11T09:59:59;13.65;;;8.98;;
46322;SDS011;32044;52.386;13.278;2022-09-11T10:02:37;12.25;;;8.73;;
46322;SDS011;32044;52.386;13.278;2022-09-11T10:05:17;11.20;;;8.98;;
46322;SDS011;32044;52.386;13.278;2022-09-11T10:07:59;10.35;;;8.02;;
46322;SDS011;32044;52.386;13.278;2022-09-11T10:10:35;16.92;;;9.73;;
46322;SDS011;32044;52.386;13.278;2022-09-11T10:13:18;12.98;;;9.98;;
46322;SDS011;32044;52.386;13.278;2022-09-11T10:15:50;15.25;;;9.30;;
46322;SDS011;32044;52.386;13.278;2022-09-11T10:18:25;12.30;;;9.77;;
46322;SDS011;32044;52.386;13.278;2022-09-11T10:23:43;12.55;;;8.75;;
46322;SDS011;32044;52.386;13.278;2022-09-11T10:26:15;15.05;;;10.25;;
46322;SDS011;32044;52.386;13.278;2022-09-11T10:28:42;15.90;;;10.32;;
46322;SDS011;32044;52.386;13.278;2022-09-11T10:31:11;10.85;;;8.68;;
46322;SDS011;32044;52.386;13.278;2022-09-11T10:33:38;13.43;;;8.85;;
46322;SDS011;32044;52.386;13.278;2022-09-11T10:36:05;13.23;;;9.48;;
46322;SDS011;32044;52.386;13.278;2022-09-11T10:41:13;12.05;;;9.30;;
46322;SDS011;32044;52.386;13.278;2022-09-11T10:48:57;11.05;;;8.40;;
46322;SDS011;32044;52.386;13.278;2022-09-11T10:51:29;11.93;;;7.43;;
46322;SDS011;32044;52.386;13.278;2022-09-11T10:56:41;11.27;;;8.25;;
46322;SDS011;32044;52.386;13.278;2022-09-11T10:59:16;10.90;;;8.02;;
46322;SDS011;32044;52.386;13.278;2022-09-11T11:01:43;11.95;;;8.88;;
46322;SDS011;32044;52.386;13.278;2022-09-11T11:04:09;10.93;;;7.53;;
46322;SDS011;32044;52.386;13.278;2022-09-11T11:06:52;9.32;;;7.00;;
46322;SDS011;32044;52.386;13.278;2022-09-11T11:09:35;10.45;;;7.00;;
46322;SDS011;32044;52.386;13.278;2022-09-11T11:15:04;10.75;;;7.25;;
46322;SDS011;32044;52.386;13.278;2022-09-11T11:17:58;9.57;;;7.78;;
46322;SDS011;32044;52.386;13.278;2022-09-11T11:20:51;10.75;;;7.22;;
46322;SDS011;32044;52.386;13.278;2022-09-11T11:34:34;7.07;;;5.78;;
46322;SDS011;32044;52.386;13.278;2022-09-11T11:37:06;8.40;;;6.13;;
46322;SDS011;32044;52.386;13.278;2022-09-11T11:39:38;8.05;;;5.72;;
46322;SDS011;32044;52.386;13.278;2022-09-11T11:42:19;7.68;;;5.80;;
46322;SDS011;32044;52.386;13.278;2022-09-11T11:47:37;9.15;;;6.57;;
46322;SDS011;32044;52.386;13.278;2022-09-11T11:50:28;10.60;;;6.53;;
46322;SDS011;32044;52.386;13.278;2022-09-11T11:53:10;8.98;;;6.13;;
46322;SDS011;32044;52.386;13.278;2022-09-11T12:01:28;8.05;;;6.32;;
46322;SDS011;32044;52.386;13.278;2022-09-11T12:04:31;7.68;;;6.50;;
46322;SDS011;32044;52.386;13.278;2022-09-11T12:06:59;11.63;;;8.25;;
46322;SDS011;32044;52.386;13.278;2022-09-11T12:09:26;9.27;;;7.10;;
46322;SDS011;32044;52.386;13.278;2022-09-11T12:11:51;9.55;;;7.68;;
46322;SDS011;32044;52.386;13.278;2022-09-11T12:14:26;9.23;;;7.10;;
46322;SDS011;32044;52.386;13.278;2022-09-11T12:16:52;7.90;;;6.60;;
46322;SDS011;32044;52.386;13.278;2022-09-11T12:19:20;10.73;;;7.25;;
46322;SDS011;32044;52.386;13.278;2022-09-11T12:24:18;8.93;;;6.85;;
46322;SDS011;32044;52.386;13.278;2022-09-11T12:26:44;10.98;;;7.45;;
46322;SDS011;32044;52.386;13.278;2022-09-11T12:34:17;7.30;;;6.25;;
46322;SDS011;32044;52.386;13.278;2022-09-11T12:36:50;6.82;;;5.93;;
46322;SDS011;32044;52.386;13.278;2022-09-11T12:39:25;7.03;;;5.82;;
46322;SDS011;32044;52.386;13.278;2022-09-11T12:42:25;6.65;;;5.90;;
46322;SDS011;32044;52.386;13.278;2022-09-11T12:47:22;6.83;;;5.50;;
46322;SDS011;32044;52.386;13.278;2022-09-11T12:49:50;6.00;;;4.82;;
46322;SDS011;32044;52.386;13.278;2022-09-11T12:52:36;7.88;;;5.40;;
46322;SDS011;32044;52.386;13.278;2022-09-11T12:57:52;6.55;;;4.68;;
46322;SDS011;32044;52.386;13.278;2022-09-11T13:00:21;5.53;;;3.75;;
46322;SDS011;32044;52.386;13.278;2022-09-11T13:02:50;5.20;;;4.07;;
46322;SDS011;32044;52.386;13.278;2022-09-11T13:05:20;6.88;;;4.53;;
46322;SDS011;32044;52.386;13.278;2022-09-11T13:07:54;7.72;;;5.15;;
46322;SDS011;32044;52.386;13.278;2022-09-11T13:12:51;7.53;;;5.47;;
46322;SDS011;32044;52.386;13.278;2022-09-11T13:15:33;7.18;;;5.78;;
46322;SDS011;32044;52.386;13.278;2022-09-11T13:20:55;6.97;;;5.53;;
46322;SDS011;32044;52.386;13.278;2022-09-11T13:23:24;7.25;;;5.68;;
46322;SDS011;32044;52.386;13.278;2022-09-11T13:25:50;8.82;;;5.93;;
46322;SDS011;32044;52.386;13.278;2022-09-11T13:28:18;6.18;;;5.53;;
46322;SDS011;32044;52.386;13.278;2022-09-11T13:30:54;8.52;;;5.70;;
46322;SDS011;32044;52.386;13.278;2022-09-11T13:33:22;6.53;;;5.30;;
46322;SDS011;32044;52.386;13.278;2022-09-11T13:35:51;6.88;;;5.55;;
46322;SDS011;32044;52.386;13.278;2022-09-11T13:38:19;5.90;;;5.30;;
46322;SDS011;32044;52.386;13.278;2022-09-11T13:40:54;5.72;;;4.53;;
46322;SDS011;32044;52.386;13.278;2022-09-11T13:43:23;6.72;;;4.90;;
46322;SDS011;32044;52.386;13.278;2022-09-11T13:48:41;6.35;;;4.97;;
46322;SDS011;32044;52.386;13.278;2022-09-11T13:51:21;8.15;;;4.72;;
46322;SDS011;32044;52.386;13.278;2022-09-11T13:53:54;6.90;;;4.57;;
46322;SDS011;32044;52.386;13.278;2022-09-11T13:56:44;4.90;;;3.83;;
46322;SDS011;32044;52.386;13.278;2022-09-11T14:02:19;5.30;;;4.30;;
46322;SDS011;32044;52.386;13.278;2022-09-11T14:07:29;4.20;;;3.75;;
46322;SDS011;32044;52.386;13.278;2022-09-11T14:10:04;5.85;;;3.70;;
46322;SDS011;32044;52.386;13.278;2022-09-11T14:12:45;5.30;;;3.93;;
46322;SDS011;32044;52.386;13.278;2022-09-11T14:15:19;4.53;;;4.13;;
46322;SDS011;32044;52.386;13.278;2022-09-11T14:17:53;4.72;;;3.97;;
46322;SDS011;32044;52.386;13.278;2022-09-11T14:20:18;4.82;;;4.10;;
46322;SDS011;32044;52.386;13.278;2022-09-11T14:22:44;5.05;;;4.50;;
46322;SDS011;32044;52.386;13.278;2022-09-11T14:27:47;4.88;;;3.83;;
46322;SDS011;32044;52.386;13.278;2022-09-11T14:30:27;4.50;;;3.85;;
46322;SDS011;32044;52.386;13.278;2022-09-11T14:33:16;5.65;;;4.50;;
46322;SDS011;32044;52.386;13.278;2022-09-11T14:35:48;5.15;;;4.40;;
46322;SDS011;32044;52.386;13.278;2022-09-11T14:38:15;5.53;;;4.80;;
46322;SDS011;32044;52.386;13.278;2022-09-11T14:40:45;5.63;;;4.50;;
46322;SDS011;32044;52.386;13.278;2022-09-11T14:43:12;5.60;;;5.03;;
46322;SDS011;32044;52.386;13.278;2022-09-11T14:45:37;6.10;;;4.65;;
46322;SDS011;32044;52.386;13.278;2022-09-11T14:48:08;7.18;;;5.68;;
46322;SDS011;32044;52.386;13.278;2022-09-11T14:50:35;6.35;;;5.20;;
46322;SDS011;32044;52.386;13.278;2022-09-11T14:53:01;5.47;;;4.95;;
46322;SDS011;32044;52.386;13.278;2022-09-11T14:55:27;5.70;;;5.10;;
46322;SDS011;32044;52.386;13.278;2022-09-11T14:57:52;6.00;;;4.53;;
46322;SDS011;32044;52.386;13.278;2022-09-11T15:00:17;5.78;;;5.00;;
46322;SDS011;32044;52.386;13.278;2022-09-11T15:02:43;6.88;;;4.97;;
46322;SDS011;32044;52.386;13.278;2022-09-11T15:05:11;7.22;;;5.03;;
46322;SDS011;32044;52.386;13.278;2022-09-11T15:07:39;4.95;;;4.25;;
46322;SDS011;32044;52.386;13.278;2022-09-11T15:10:05;8.18;;;4.47;;
46322;SDS011;32044;52.386;13.278;2022-09-11T15:12:30;5.22;;;3.88;;
46322;SDS011;32044;52.386;13.278;2022-09-11T15:14:56;5.95;;;3.83;;
46322;SDS011;32044;52.386;13.278;2022-09-11T15:17:22;4.22;;;3.83;;
46322;SDS011;32044;52.386;13.278;2022-09-11T15:19:48;4.53;;;3.88;;
46322;SDS011;32044;52.386;13.278;2022-09-11T15:22:15;6.80;;;4.13;;
46322;SDS011;32044;52.386;13.278;2022-09-11T15:24:40;4.97;;;3.92;;
46322;SDS011;32044;52.386;13.278;2022-09-11T15:27:06;5.82;;;4.05;;
46322;SDS011;32044;52.386;13.278;2022-09-11T15:29:32;7.00;;;3.60;;
46322;SDS011;32044;52.386;13.278;2022-09-11T15:31:58;4.63;;;3.63;;
46322;SDS011;32044;52.386;13.278;2022-09-11T15:34:25;4.25;;;3.80;;
46322;SDS011;32044;52.386;13.278;2022-09-11T15:36:55;4.38;;;3.83;;
46322;SDS011;32044;52.386;13.278;2022-09-11T15:39:21;5.80;;;3.90;;
46322;SDS011;32044;52.386;13.278;2022-09-11T15:41:48;5.65;;;3.70;;
46322;SDS011;32044;52.386;13.278;2022-09-11T15:44:17;5.53;;;3.55;;
46322;SDS011;32044;52.386;13.278;2022-09-11T15:46:45;4.57;;;3.40;;
46322;SDS011;32044;52.386;13.278;2022-09-11T15:49:10;5.22;;;3.90;;
46322;SDS011;32044;52.386;13.278;2022-09-11T15:51:36;7.93;;;4.00;;
46322;SDS011;32044;52.386;13.278;2022-09-11T15:54:02;4.13;;;3.38;;
46322;SDS011;32044;52.386;13.278;2022-09-11T15:56:28;4.32;;;3.47;;
46322;SDS011;32044;52.386;13.278;2022-09-11T15:58:55;4.03;;;3.47;;
46322;SDS011;32044;52.386;13.278;2022-09-11T16:01:29;4.13;;;3.28;;
46322;SDS011;32044;52.386;13.278;2022-09-11T16:03:59;6.25;;;3.80;;
46322;SDS011;32044;52.386;13.278;2022-09-11T16:06:26;4.30;;;3.83;;
46322;SDS011;32044;52.386;13.278;2022-09-11T16:08:56;4.88;;;3.40;;
46322;SDS011;32044;52.386;13.278;2022-09-11T16:11:22;4.30;;;3.30;;
46322;SDS011;32044;52.386;13.278;2022-09-11T16:13:49;3.58;;;2.80;;
46322;SDS011;32044;52.386;13.278;2022-09-11T16:16:15;5.18;;;3.50;;
46322;SDS011;32044;52.386;13.278;2022-09-11T16:18:41;4.30;;;3.22;;
46322;SDS011;32044;52.386;13.278;2022-09-11T16:21:07;3.50;;;3.10;;
46322;SDS011;32044;52.386;13.278;2022-09-11T16:23:33;3.80;;;3.05;;
46322;SDS011;32044;52.386;13.278;2022-09-11T16:26:06;4.05;;;3.35;;